sensor_id;sensor_type;location;lat;lon;timestamp;P1;durP1;ratioP1;P2;durP2;ratioP2
18820;SDS011;9539;59.332;18.034;2024-03-06T00:01:56;8.35;;;5.03;;
18820;SDS011;9539;59.332;18.034;2024-03-06T00:04:18;8.38;;;4.80;;
18820;SDS011;9539;59.332;18.034;2024-03-06T00:06:40;10.25;;;4.60;;
18820;SDS011;9539;59.332;18.034;2024-03-06T00:09:01;8.63;;;4.50;;
18820;SDS011;9539;59.332;18.034;2024-03-06T00:11:24;9.32;;;4.22;;
18820;SDS011;9539;59.332;18.034;2024-03-06T00:13:46;9.68;;;4.43;;
18820;SDS011;9539;59.332;18.034;2024-03-06T00:16:08;9.77;;;4.60;;
18820;SDS011;9539;59.332;18.034;2024-03-06T00:18:30;9.23;;;4.45;;
18820;SDS011;9539;59.332;18.034;2024-03-06T00:20:52;9.32;;;4.40;;
18820;SDS011;9539;59.332;18.034;2024-03-06T00:23:14;9.55;;;4.07;;
18820;SDS011;9539;59.332;18.034;2024-03-06T00:25:35;6.57;;;3.40;;
18820;SDS011;9539;59.332;18.034;2024-03-06T00:27:57;6.30;;;3.80;;
18820;SDS011;9539;59.332;18.034;2024-03-06T00:30:18;12.15;;;3.90;;
18820;SDS011;9539;59.332;18.034;2024-03-06T00:32:40;6.97;;;3.53;;
18820;SDS011;9539;59.332;18.034;2024-03-06T00:35:04;5.78;;;3.35;;
18820;SDS011;9539;59.332;18.034;2024-03-06T00:37:25;7.15;;;3.50;;
18820;SDS011;9539;59.332;18.034;2024-03-06T00:39:47;6.13;;;4.22;;
18820;SDS011;9539;59.332;18.034;2024-03-06T00:42:08;5.18;;;3.45;;
18820;SDS011;9539;59.332;18.034;2024-03-06T00:44:33;6.97;;;3.72;;
18820;SDS011;9539;59.332;18.034;2024-03-06T00:46:55;11.90;;;4.32;;
18820;SDS011;9539;59.332;18.034;2024-03-06T00:49:16;8.45;;;3.88;;
18820;SDS011;9539;59.332;18.034;2024-03-06T00:51:39;8.95;;;4.00;;
18820;SDS011;9539;59.332;18.034;2024-03-06T00:54:01;5.47;;;3.65;;
18820;SDS011;9539;59.332;18.034;2024-03-06T00:56:23;6.00;;;3.15;;
18820;SDS011;9539;59.332;18.034;2024-03-06T00:58:44;7.00;;;3.75;;
18820;SDS011;9539;59.332;18.034;2024-03-06T01:01:06;10.93;;;4.30;;
18820;SDS011;9539;59.332;18.034;2024-03-06T01:03:28;8.40;;;3.95;;
18820;SDS011;9539;59.332;18.034;2024-03-06T01:05:50;8.55;;;3.90;;
18820;SDS011;9539;59.332;18.034;2024-03-06T01:08:13;8.38;;;3.08;;
18820;SDS011;9539;59.332;18.034;2024-03-06T01:10:37;5.82;;;3.33;;
18820;SDS011;9539;59.332;18.034;2024-03-06T01:12:59;7.40;;;3.58;;
18820;SDS011;9539;59.332;18.034;2024-03-06T01:15:21;8.38;;;3.70;;
18820;SDS011;9539;59.332;18.034;2024-03-06T01:17:42;7.20;;;3.30;;
18820;SDS011;9539;59.332;18.034;2024-03-06T01:20:04;6.70;;;3.80;;
18820;SDS011;9539;59.332;18.034;2024-03-06T01:22:26;9.63;;;3.60;;
18820;SDS011;9539;59.332;18.034;2024-03-06T01:24:49;7.10;;;3.95;;
18820;SDS011;9539;59.332;18.034;2024-03-06T01:27:11;6.75;;;2.95;;
18820;SDS011;9539;59.332;18.034;2024-03-06T01:29:33;10.93;;;4.00;;
18820;SDS011;9539;59.332;18.034;2024-03-06T01:31:54;7.55;;;3.80;;
18820;SDS011;9539;59.332;18.034;2024-03-06T01:34:16;9.90;;;3.85;;
18820;SDS011;9539;59.332;18.034;2024-03-06T01:36:37;9.00;;;3.05;;
18820;SDS011;9539;59.332;18.034;2024-03-06T01:38:59;9.48;;;4.03;;
18820;SDS011;9539;59.332;18.034;2024-03-06T01:41:22;8.35;;;4.15;;
18820;SDS011;9539;59.332;18.034;2024-03-06T01:43:44;11.45;;;3.78;;
18820;SDS011;9539;59.332;18.034;2024-03-06T01:46:07;6.35;;;3.40;;
18820;SDS011;9539;59.332;18.034;2024-03-06T01:48:28;8.55;;;3.42;;
18820;SDS011;9539;59.332;18.034;2024-03-06T01:50:52;7.55;;;3.60;;
18820;SDS011;9539;59.332;18.034;2024-03-06T01:53:14;5.63;;;3.70;;
18820;SDS011;9539;59.332;18.034;2024-03-06T01:55:36;7.38;;;3.55;;
18820;SDS011;9539;59.332;18.034;2024-03-06T01:58:00;5.20;;;3.28;;
18820;SDS011;9539;59.332;18.034;2024-03-06T02:03:02;6.43;;;3.53;;
18820;SDS011;9539;59.332;18.034;2024-03-06T02:05:23;9.00;;;4.15;;
18820;SDS011;9539;59.332;18.034;2024-03-06T02:07:45;12.02;;;4.18;;
18820;SDS011;9539;59.332;18.034;2024-03-06T02:10:07;8.88;;;3.53;;
18820;SDS011;9539;59.332;18.034;2024-03-06T02:12:30;7.35;;;3.35;;
18820;SDS011;9539;59.332;18.034;2024-03-06T02:14:53;9.07;;;4.05;;
18820;SDS011;9539;59.332;18.034;2024-03-06T02:17:14;9.85;;;4.03;;
18820;SDS011;9539;59.332;18.034;2024-03-06T02:19:39;7.68;;;4.25;;
18820;SDS011;9539;59.332;18.034;2024-03-06T02:22:02;8.55;;;3.80;;
18820;SDS011;9539;59.332;18.034;2024-03-06T02:24:24;10.05;;;4.38;;
18820;SDS011;9539;59.332;18.034;2024-03-06T02:26:45;13.25;;;4.88;;
18820;SDS011;9539;59.332;18.034;2024-03-06T02:29:07;8.65;;;4.18;;
18820;SDS011;9539;59.332;18.034;2024-03-06T02:31:29;10.45;;;4.50;;
18820;SDS011;9539;59.332;18.034;2024-03-06T02:33:51;9.80;;;4.80;;
18820;SDS011;9539;59.332;18.034;2024-03-06T02:36:13;11.15;;;4.90;;
18820;SDS011;9539;59.332;18.034;2024-03-06T02:38:36;4.05;;;2.20;;
18820;SDS011;9539;59.332;18.034;2024-03-06T02:40:57;6.97;;;3.85;;
18820;SDS011;9539;59.332;18.034;2024-03-06T02:43:19;14.85;;;5.03;;
18820;SDS011;9539;59.332;18.034;2024-03-06T02:45:41;10.10;;;5.05;;
18820;SDS011;9539;59.332;18.034;2024-03-06T02:48:03;12.00;;;5.68;;
18820;SDS011;9539;59.332;18.034;2024-03-06T02:50:23;10.80;;;5.63;;
18820;SDS011;9539;59.332;18.034;2024-03-06T02:52:45;11.95;;;4.65;;
18820;SDS011;9539;59.332;18.034;2024-03-06T02:55:08;13.05;;;4.78;;
18820;SDS011;9539;59.332;18.034;2024-03-06T02:57:30;10.25;;;4.97;;
18820;SDS011;9539;59.332;18.034;2024-03-06T02:59:52;9.95;;;5.90;;
18820;SDS011;9539;59.332;18.034;2024-03-06T03:02:13;8.63;;;4.53;;
18820;SDS011;9539;59.332;18.034;2024-03-06T03:04:35;8.48;;;4.88;;
18820;SDS011;9539;59.332;18.034;2024-03-06T03:06:56;11.32;;;5.18;;
18820;SDS011;9539;59.332;18.034;2024-03-06T03:09:18;8.77;;;4.45;;
18820;SDS011;9539;59.332;18.034;2024-03-06T03:11:43;11.50;;;5.10;;
18820;SDS011;9539;59.332;18.034;2024-03-06T03:14:04;11.98;;;5.30;;
18820;SDS011;9539;59.332;18.034;2024-03-06T03:16:26;9.65;;;5.15;;
18820;SDS011;9539;59.332;18.034;2024-03-06T03:18:50;8.73;;;4.47;;
18820;SDS011;9539;59.332;18.034;2024-03-06T03:21:11;8.73;;;5.15;;
18820;SDS011;9539;59.332;18.034;2024-03-06T03:23:33;12.40;;;4.85;;
18820;SDS011;9539;59.332;18.034;2024-03-06T03:25:54;12.95;;;5.40;;
18820;SDS011;9539;59.332;18.034;2024-03-06T03:28:17;13.05;;;5.28;;
18820;SDS011;9539;59.332;18.034;2024-03-06T03:30:39;10.30;;;4.72;;
18820;SDS011;9539;59.332;18.034;2024-03-06T03:33:01;10.52;;;5.40;;
18820;SDS011;9539;59.332;18.034;2024-03-06T03:35:22;10.75;;;5.88;;
18820;SDS011;9539;59.332;18.034;2024-03-06T03:37:45;8.75;;;5.00;;
18820;SDS011;9539;59.332;18.034;2024-03-06T03:40:07;9.40;;;5.07;;
18820;SDS011;9539;59.332;18.034;2024-03-06T03:42:31;10.00;;;5.47;;
18820;SDS011;9539;59.332;18.034;2024-03-06T03:44:54;10.25;;;4.85;;
18820;SDS011;9539;59.332;18.034;2024-03-06T03:47:16;11.57;;;5.28;;
18820;SDS011;9539;59.332;18.034;2024-03-06T03:49:37;12.95;;;5.55;;
18820;SDS011;9539;59.332;18.034;2024-03-06T03:51:59;11.98;;;4.88;;
18820;SDS011;9539;59.332;18.034;2024-03-06T03:54:21;10.15;;;5.10;;
18820;SDS011;9539;59.332;18.034;2024-03-06T03:56:42;10.15;;;3.88;;
18820;SDS011;9539;59.332;18.034;2024-03-06T03:59:04;10.90;;;5.05;;
18820;SDS011;9539;59.332;18.034;2024-03-06T04:01:27;13.35;;;5.57;;
18820;SDS011;9539;59.332;18.034;2024-03-06T04:03:48;10.75;;;5.15;;
18820;SDS011;9539;59.332;18.034;2024-03-06T04:06:11;9.02;;;4.53;;
18820;SDS011;9539;59.332;18.034;2024-03-06T04:08:32;9.90;;;4.80;;
18820;SDS011;9539;59.332;18.034;2024-03-06T04:10:54;13.85;;;5.25;;
18820;SDS011;9539;59.332;18.034;2024-03-06T04:13:16;12.65;;;5.45;;
18820;SDS011;9539;59.332;18.034;2024-03-06T04:15:39;9.80;;;4.85;;
18820;SDS011;9539;59.332;18.034;2024-03-06T04:18:02;9.65;;;4.70;;
18820;SDS011;9539;59.332;18.034;2024-03-06T04:20:24;13.23;;;5.63;;
18820;SDS011;9539;59.332;18.034;2024-03-06T04:22:46;11.75;;;5.15;;
18820;SDS011;9539;59.332;18.034;2024-03-06T04:25:08;9.38;;;4.88;;
18820;SDS011;9539;59.332;18.034;2024-03-06T04:27:29;9.27;;;5.28;;
18820;SDS011;9539;59.332;18.034;2024-03-06T04:29:51;10.85;;;5.75;;
18820;SDS011;9539;59.332;18.034;2024-03-06T04:32:13;13.55;;;5.13;;
18820;SDS011;9539;59.332;18.034;2024-03-06T04:34:36;12.90;;;5.25;;
18820;SDS011;9539;59.332;18.034;2024-03-06T04:36:57;11.27;;;5.10;;
18820;SDS011;9539;59.332;18.034;2024-03-06T04:39:21;8.90;;;5.07;;
18820;SDS011;9539;59.332;18.034;2024-03-06T04:41:43;10.25;;;4.80;;
18820;SDS011;9539;59.332;18.034;2024-03-06T04:44:05;10.50;;;5.28;;
18820;SDS011;9539;59.332;18.034;2024-03-06T04:46:27;7.53;;;3.60;;
18820;SDS011;9539;59.332;18.034;2024-03-06T04:48:48;8.70;;;4.80;;
18820;SDS011;9539;59.332;18.034;2024-03-06T04:51:11;8.95;;;4.68;;
18820;SDS011;9539;59.332;18.034;2024-03-06T04:53:33;11.80;;;4.75;;
18820;SDS011;9539;59.332;18.034;2024-03-06T04:55:54;8.50;;;4.22;;
18820;SDS011;9539;59.332;18.034;2024-03-06T04:58:16;10.50;;;5.28;;
18820;SDS011;9539;59.332;18.034;2024-03-06T05:00:38;10.30;;;4.88;;
18820;SDS011;9539;59.332;18.034;2024-03-06T05:02:59;16.67;;;4.97;;
18820;SDS011;9539;59.332;18.034;2024-03-06T05:05:21;15.43;;;4.78;;
18820;SDS011;9539;59.332;18.034;2024-03-06T05:07:46;7.72;;;4.55;;
18820;SDS011;9539;59.332;18.034;2024-03-06T05:10:08;13.20;;;5.00;;
18820;SDS011;9539;59.332;18.034;2024-03-06T05:12:29;9.98;;;5.15;;
18820;SDS011;9539;59.332;18.034;2024-03-06T05:14:51;8.73;;;4.60;;
18820;SDS011;9539;59.332;18.034;2024-03-06T05:17:13;11.00;;;4.40;;
18820;SDS011;9539;59.332;18.034;2024-03-06T05:19:34;11.90;;;4.90;;
18820;SDS011;9539;59.332;18.034;2024-03-06T05:21:56;11.25;;;4.50;;
18820;SDS011;9539;59.332;18.034;2024-03-06T05:24:19;10.15;;;5.07;;
18820;SDS011;9539;59.332;18.034;2024-03-06T05:26:41;11.40;;;4.65;;
18820;SDS011;9539;59.332;18.034;2024-03-06T05:29:02;10.55;;;4.40;;
18820;SDS011;9539;59.332;18.034;2024-03-06T05:31:24;11.90;;;4.38;;
18820;SDS011;9539;59.332;18.034;2024-03-06T05:33:46;5.72;;;3.58;;
18820;SDS011;9539;59.332;18.034;2024-03-06T05:36:08;11.30;;;4.28;;
18820;SDS011;9539;59.332;18.034;2024-03-06T05:38:30;7.30;;;3.88;;
18820;SDS011;9539;59.332;18.034;2024-03-06T05:40:53;7.95;;;4.30;;
18820;SDS011;9539;59.332;18.034;2024-03-06T05:43:15;8.40;;;3.88;;
18820;SDS011;9539;59.332;18.034;2024-03-06T05:45:36;8.88;;;4.13;;
18820;SDS011;9539;59.332;18.034;2024-03-06T05:47:58;5.18;;;3.72;;
18820;SDS011;9539;59.332;18.034;2024-03-06T05:50:20;7.45;;;4.28;;
18820;SDS011;9539;59.332;18.034;2024-03-06T05:52:40;8.63;;;3.90;;
18820;SDS011;9539;59.332;18.034;2024-03-06T05:55:02;10.60;;;4.10;;
18820;SDS011;9539;59.332;18.034;2024-03-06T05:57:27;5.97;;;3.38;;
18820;SDS011;9539;59.332;18.034;2024-03-06T05:59:49;10.52;;;3.25;;
18820;SDS011;9539;59.332;18.034;2024-03-06T06:02:11;6.88;;;3.72;;
18820;SDS011;9539;59.332;18.034;2024-03-06T06:04:32;4.72;;;2.35;;
18820;SDS011;9539;59.332;18.034;2024-03-06T06:06:54;6.80;;;3.47;;
18820;SDS011;9539;59.332;18.034;2024-03-06T06:09:15;9.15;;;3.65;;
18820;SDS011;9539;59.332;18.034;2024-03-06T06:11:37;7.88;;;3.80;;
18820;SDS011;9539;59.332;18.034;2024-03-06T06:14:00;5.10;;;2.90;;
18820;SDS011;9539;59.332;18.034;2024-03-06T06:16:22;9.50;;;3.80;;
18820;SDS011;9539;59.332;18.034;2024-03-06T06:18:44;7.38;;;3.33;;
18820;SDS011;9539;59.332;18.034;2024-03-06T06:21:06;6.35;;;3.58;;
18820;SDS011;9539;59.332;18.034;2024-03-06T06:23:28;6.35;;;3.40;;
18820;SDS011;9539;59.332;18.034;2024-03-06T06:25:49;6.40;;;3.97;;
18820;SDS011;9539;59.332;18.034;2024-03-06T06:28:11;7.78;;;3.50;;
18820;SDS011;9539;59.332;18.034;2024-03-06T06:30:34;4.80;;;3.13;;
18820;SDS011;9539;59.332;18.034;2024-03-06T06:32:56;5.47;;;2.97;;
18820;SDS011;9539;59.332;18.034;2024-03-06T06:35:18;6.90;;;4.03;;
18820;SDS011;9539;59.332;18.034;2024-03-06T06:37:39;7.25;;;3.92;;
18820;SDS011;9539;59.332;18.034;2024-03-06T06:40:01;16.00;;;3.83;;
18820;SDS011;9539;59.332;18.034;2024-03-06T06:42:26;12.40;;;3.75;;
18820;SDS011;9539;59.332;18.034;2024-03-06T06:44:48;9.48;;;3.90;;
18820;SDS011;9539;59.332;18.034;2024-03-06T06:47:11;8.15;;;3.50;;
18820;SDS011;9539;59.332;18.034;2024-03-06T06:49:32;6.88;;;3.47;;
18820;SDS011;9539;59.332;18.034;2024-03-06T06:51:54;5.07;;;3.10;;
18820;SDS011;9539;59.332;18.034;2024-03-06T06:54:15;7.50;;;3.42;;
18820;SDS011;9539;59.332;18.034;2024-03-06T06:56:37;10.05;;;3.60;;
18820;SDS011;9539;59.332;18.034;2024-03-06T06:58:58;7.57;;;3.75;;
18820;SDS011;9539;59.332;18.034;2024-03-06T07:01:21;12.43;;;4.43;;
18820;SDS011;9539;59.332;18.034;2024-03-06T07:03:44;9.30;;;4.00;;
18820;SDS011;9539;59.332;18.034;2024-03-06T07:06:05;6.32;;;3.83;;
18820;SDS011;9539;59.332;18.034;2024-03-06T07:08:28;14.05;;;3.97;;
18820;SDS011;9539;59.332;18.034;2024-03-06T07:10:50;8.20;;;3.13;;
18820;SDS011;9539;59.332;18.034;2024-03-06T07:13:13;6.80;;;3.95;;
18820;SDS011;9539;59.332;18.034;2024-03-06T07:15:35;4.75;;;3.03;;
18820;SDS011;9539;59.332;18.034;2024-03-06T07:17:57;6.70;;;3.25;;
18820;SDS011;9539;59.332;18.034;2024-03-06T07:20:20;10.13;;;3.63;;
18820;SDS011;9539;59.332;18.034;2024-03-06T07:22:42;5.82;;;3.05;;
18820;SDS011;9539;59.332;18.034;2024-03-06T07:25:04;9.15;;;3.10;;
18820;SDS011;9539;59.332;18.034;2024-03-06T07:27:26;6.45;;;2.80;;
18820;SDS011;9539;59.332;18.034;2024-03-06T07:29:48;6.63;;;3.28;;
18820;SDS011;9539;59.332;18.034;2024-03-06T07:32:10;7.15;;;3.10;;
18820;SDS011;9539;59.332;18.034;2024-03-06T07:34:32;9.23;;;3.63;;
18820;SDS011;9539;59.332;18.034;2024-03-06T07:36:55;6.85;;;3.50;;
18820;SDS011;9539;59.332;18.034;2024-03-06T07:39:18;11.75;;;3.83;;
18820;SDS011;9539;59.332;18.034;2024-03-06T07:41:40;8.30;;;3.28;;
18820;SDS011;9539;59.332;18.034;2024-03-06T07:44:02;8.15;;;3.00;;
18820;SDS011;9539;59.332;18.034;2024-03-06T07:46:24;6.38;;;3.05;;
18820;SDS011;9539;59.332;18.034;2024-03-06T07:48:45;11.07;;;3.40;;
18820;SDS011;9539;59.332;18.034;2024-03-06T07:51:07;5.63;;;3.60;;
18820;SDS011;9539;59.332;18.034;2024-03-06T07:53:30;8.15;;;3.45;;
18820;SDS011;9539;59.332;18.034;2024-03-06T07:55:52;7.55;;;3.28;;
18820;SDS011;9539;59.332;18.034;2024-03-06T07:58:13;7.25;;;3.03;;
18820;SDS011;9539;59.332;18.034;2024-03-06T08:00:37;9.20;;;3.17;;
18820;SDS011;9539;59.332;18.034;2024-03-06T08:02:59;9.50;;;3.10;;
18820;SDS011;9539;59.332;18.034;2024-03-06T08:05:21;5.00;;;2.60;;
18820;SDS011;9539;59.332;18.034;2024-03-06T08:07:43;2.45;;;1.95;;
18820;SDS011;9539;59.332;18.034;2024-03-06T08:10:07;7.25;;;3.10;;
18820;SDS011;9539;59.332;18.034;2024-03-06T08:12:29;3.83;;;2.22;;
18820;SDS011;9539;59.332;18.034;2024-03-06T08:14:51;6.65;;;3.10;;
18820;SDS011;9539;59.332;18.034;2024-03-06T08:17:14;9.05;;;2.97;;
18820;SDS011;9539;59.332;18.034;2024-03-06T08:19:36;7.95;;;3.03;;
18820;SDS011;9539;59.332;18.034;2024-03-06T08:21:57;3.65;;;2.40;;
18820;SDS011;9539;59.332;18.034;2024-03-06T08:24:19;5.20;;;2.33;;
18820;SDS011;9539;59.332;18.034;2024-03-06T08:26:42;8.77;;;2.90;;
18820;SDS011;9539;59.332;18.034;2024-03-06T08:29:04;10.00;;;2.80;;
18820;SDS011;9539;59.332;18.034;2024-03-06T08:31:25;5.05;;;2.97;;
18820;SDS011;9539;59.332;18.034;2024-03-06T08:33:47;4.53;;;2.65;;
18820;SDS011;9539;59.332;18.034;2024-03-06T08:36:09;5.05;;;2.33;;
18820;SDS011;9539;59.332;18.034;2024-03-06T08:38:30;8.45;;;2.58;;
18820;SDS011;9539;59.332;18.034;2024-03-06T08:40:52;10.70;;;2.50;;
18820;SDS011;9539;59.332;18.034;2024-03-06T08:43:15;7.72;;;2.85;;
18820;SDS011;9539;59.332;18.034;2024-03-06T08:45:39;7.82;;;3.17;;
18820;SDS011;9539;59.332;18.034;2024-03-06T08:48:01;8.32;;;2.38;;
18820;SDS011;9539;59.332;18.034;2024-03-06T08:50:23;7.15;;;2.67;;
18820;SDS011;9539;59.332;18.034;2024-03-06T08:52:45;9.13;;;3.15;;
18820;SDS011;9539;59.332;18.034;2024-03-06T08:55:07;6.03;;;2.88;;
18820;SDS011;9539;59.332;18.034;2024-03-06T08:57:28;5.95;;;2.90;;
18820;SDS011;9539;59.332;18.034;2024-03-06T08:59:52;7.75;;;2.95;;
18820;SDS011;9539;59.332;18.034;2024-03-06T09:02:14;7.15;;;2.72;;
18820;SDS011;9539;59.332;18.034;2024-03-06T09:04:37;8.70;;;2.80;;
18820;SDS011;9539;59.332;18.034;2024-03-06T09:06:59;6.68;;;2.58;;
18820;SDS011;9539;59.332;18.034;2024-03-06T09:09:20;5.07;;;2.50;;
18820;SDS011;9539;59.332;18.034;2024-03-06T09:11:42;7.10;;;1.77;;
18820;SDS011;9539;59.332;18.034;2024-03-06T09:14:04;8.88;;;2.67;;
18820;SDS011;9539;59.332;18.034;2024-03-06T09:16:27;7.47;;;2.33;;
18820;SDS011;9539;59.332;18.034;2024-03-06T09:18:48;6.18;;;3.03;;
18820;SDS011;9539;59.332;18.034;2024-03-06T09:21:10;4.10;;;2.20;;
18820;SDS011;9539;59.332;18.034;2024-03-06T09:23:32;4.93;;;2.30;;
18820;SDS011;9539;59.332;18.034;2024-03-06T09:25:53;5.13;;;2.00;;
18820;SDS011;9539;59.332;18.034;2024-03-06T09:28:15;10.98;;;2.30;;
18820;SDS011;9539;59.332;18.034;2024-03-06T09:30:37;4.18;;;2.17;;
18820;SDS011;9539;59.332;18.034;2024-03-06T09:33:00;7.95;;;2.33;;
18820;SDS011;9539;59.332;18.034;2024-03-06T09:35:21;5.50;;;2.28;;
18820;SDS011;9539;59.332;18.034;2024-03-06T09:37:44;5.57;;;2.30;;
18820;SDS011;9539;59.332;18.034;2024-03-06T09:40:07;5.30;;;2.50;;
18820;SDS011;9539;59.332;18.034;2024-03-06T09:42:29;7.32;;;2.13;;
18820;SDS011;9539;59.332;18.034;2024-03-06T09:44:51;6.25;;;2.30;;
18820;SDS011;9539;59.332;18.034;2024-03-06T09:47:13;9.65;;;2.72;;
18820;SDS011;9539;59.332;18.034;2024-03-06T09:49:37;5.70;;;2.80;;
18820;SDS011;9539;59.332;18.034;2024-03-06T09:51:59;7.57;;;2.55;;
18820;SDS011;9539;59.332;18.034;2024-03-06T09:54:20;5.30;;;1.73;;
18820;SDS011;9539;59.332;18.034;2024-03-06T09:56:44;8.18;;;2.63;;
18820;SDS011;9539;59.332;18.034;2024-03-06T09:59:06;5.95;;;2.15;;
18820;SDS011;9539;59.332;18.034;2024-03-06T10:01:27;4.82;;;2.10;;
18820;SDS011;9539;59.332;18.034;2024-03-06T10:04:16;5.30;;;2.30;;
18820;SDS011;9539;59.332;18.034;2024-03-06T10:06:39;3.92;;;2.03;;
18820;SDS011;9539;59.332;18.034;2024-03-06T10:09:03;7.55;;;2.50;;
18820;SDS011;9539;59.332;18.034;2024-03-06T10:11:28;6.00;;;2.30;;
18820;SDS011;9539;59.332;18.034;2024-03-06T10:13:52;4.88;;;2.30;;
18820;SDS011;9539;59.332;18.034;2024-03-06T10:16:14;10.75;;;2.38;;
18820;SDS011;9539;59.332;18.034;2024-03-06T10:18:35;5.10;;;2.47;;
18820;SDS011;9539;59.332;18.034;2024-03-06T10:20:59;17.17;;;3.00;;
18820;SDS011;9539;59.332;18.034;2024-03-06T10:23:22;9.80;;;2.67;;
18820;SDS011;9539;59.332;18.034;2024-03-06T10:25:44;9.57;;;2.58;;
18820;SDS011;9539;59.332;18.034;2024-03-06T10:28:11;7.75;;;2.38;;
18820;SDS011;9539;59.332;18.034;2024-03-06T10:30:33;6.63;;;2.70;;
18820;SDS011;9539;59.332;18.034;2024-03-06T10:32:55;10.00;;;2.40;;
18820;SDS011;9539;59.332;18.034;2024-03-06T10:35:18;8.45;;;2.30;;
18820;SDS011;9539;59.332;18.034;2024-03-06T10:37:41;11.15;;;2.42;;
18820;SDS011;9539;59.332;18.034;2024-03-06T10:40:06;4.20;;;1.80;;
18820;SDS011;9539;59.332;18.034;2024-03-06T10:42:32;5.95;;;2.30;;
18820;SDS011;9539;59.332;18.034;2024-03-06T10:44:54;9.48;;;2.20;;
18820;SDS011;9539;59.332;18.034;2024-03-06T10:47:17;14.43;;;2.47;;
18820;SDS011;9539;59.332;18.034;2024-03-06T10:49:39;13.95;;;2.40;;
18820;SDS011;9539;59.332;18.034;2024-03-06T10:52:03;5.82;;;2.50;;
18820;SDS011;9539;59.332;18.034;2024-03-06T10:54:27;4.60;;;2.17;;
18820;SDS011;9539;59.332;18.034;2024-03-06T10:56:50;5.25;;;2.47;;
18820;SDS011;9539;59.332;18.034;2024-03-06T10:59:13;11.02;;;2.50;;
18820;SDS011;9539;59.332;18.034;2024-03-06T11:01:36;6.90;;;2.10;;
18820;SDS011;9539;59.332;18.034;2024-03-06T11:03:58;3.85;;;2.05;;
18820;SDS011;9539;59.332;18.034;2024-03-06T11:06:20;7.13;;;2.20;;
18820;SDS011;9539;59.332;18.034;2024-03-06T11:08:42;6.22;;;2.38;;
18820;SDS011;9539;59.332;18.034;2024-03-06T11:11:19;10.50;;;2.35;;
18820;SDS011;9539;59.332;18.034;2024-03-06T11:13:42;12.77;;;2.63;;
18820;SDS011;9539;59.332;18.034;2024-03-06T11:16:04;8.23;;;2.25;;
18820;SDS011;9539;59.332;18.034;2024-03-06T11:18:42;6.53;;;2.15;;
18820;SDS011;9539;59.332;18.034;2024-03-06T11:26:17;8.20;;;2.65;;
18820;SDS011;9539;59.332;18.034;2024-03-06T11:28:40;7.40;;;2.42;;
18820;SDS011;9539;59.332;18.034;2024-03-06T11:31:11;6.57;;;2.50;;
18820;SDS011;9539;59.332;18.034;2024-03-06T11:33:39;4.75;;;2.30;;
18820;SDS011;9539;59.332;18.034;2024-03-06T11:36:17;6.63;;;2.72;;
18820;SDS011;9539;59.332;18.034;2024-03-06T11:38:40;9.63;;;2.90;;
18820;SDS011;9539;59.332;18.034;2024-03-06T11:41:01;7.13;;;2.53;;
18820;SDS011;9539;59.332;18.034;2024-03-06T11:43:24;5.70;;;2.30;;
18820;SDS011;9539;59.332;18.034;2024-03-06T11:45:47;7.90;;;2.20;;
18820;SDS011;9539;59.332;18.034;2024-03-06T11:48:10;4.30;;;2.40;;
18820;SDS011;9539;59.332;18.034;2024-03-06T11:50:37;5.72;;;2.28;;
18820;SDS011;9539;59.332;18.034;2024-03-06T11:52:58;9.20;;;2.15;;
18820;SDS011;9539;59.332;18.034;2024-03-06T11:55:20;6.43;;;1.90;;
18820;SDS011;9539;59.332;18.034;2024-03-06T11:57:42;11.45;;;2.38;;
18820;SDS011;9539;59.332;18.034;2024-03-06T12:00:04;5.78;;;2.03;;
18820;SDS011;9539;59.332;18.034;2024-03-06T12:02:27;4.25;;;2.20;;
18820;SDS011;9539;59.332;18.034;2024-03-06T12:04:50;4.70;;;2.08;;
18820;SDS011;9539;59.332;18.034;2024-03-06T12:07:13;15.88;;;2.67;;
18820;SDS011;9539;59.332;18.034;2024-03-06T12:09:37;6.20;;;2.30;;
18820;SDS011;9539;59.332;18.034;2024-03-06T12:11:58;6.13;;;2.20;;
18820;SDS011;9539;59.332;18.034;2024-03-06T12:14:20;8.35;;;2.35;;
18820;SDS011;9539;59.332;18.034;2024-03-06T12:16:43;5.75;;;2.15;;
18820;SDS011;9539;59.332;18.034;2024-03-06T12:19:05;5.00;;;2.30;;
18820;SDS011;9539;59.332;18.034;2024-03-06T12:21:29;7.68;;;2.38;;
18820;SDS011;9539;59.332;18.034;2024-03-06T12:24:01;6.60;;;2.13;;
18820;SDS011;9539;59.332;18.034;2024-03-06T12:26:23;3.72;;;1.98;;
18820;SDS011;9539;59.332;18.034;2024-03-06T12:28:44;7.75;;;2.50;;
18820;SDS011;9539;59.332;18.034;2024-03-06T12:31:06;9.20;;;2.30;;
18820;SDS011;9539;59.332;18.034;2024-03-06T12:33:28;11.18;;;2.60;;
18820;SDS011;9539;59.332;18.034;2024-03-06T12:35:59;5.88;;;2.63;;
18820;SDS011;9539;59.332;18.034;2024-03-06T12:38:22;4.82;;;2.22;;
18820;SDS011;9539;59.332;18.034;2024-03-06T12:40:43;6.20;;;2.47;;
18820;SDS011;9539;59.332;18.034;2024-03-06T12:43:05;9.48;;;2.13;;
18820;SDS011;9539;59.332;18.034;2024-03-06T12:45:26;8.70;;;2.45;;
18820;SDS011;9539;59.332;18.034;2024-03-06T12:47:48;8.52;;;3.00;;
18820;SDS011;9539;59.332;18.034;2024-03-06T12:50:10;7.90;;;2.58;;
18820;SDS011;9539;59.332;18.034;2024-03-06T12:52:32;4.57;;;2.28;;
18820;SDS011;9539;59.332;18.034;2024-03-06T12:54:55;4.25;;;2.03;;
18820;SDS011;9539;59.332;18.034;2024-03-06T12:57:17;7.15;;;2.50;;
18820;SDS011;9539;59.332;18.034;2024-03-06T12:59:38;6.70;;;2.38;;
18820;SDS011;9539;59.332;18.034;2024-03-06T13:02:00;9.50;;;2.38;;
18820;SDS011;9539;59.332;18.034;2024-03-06T13:04:22;7.57;;;2.40;;
18820;SDS011;9539;59.332;18.034;2024-03-06T13:06:43;6.72;;;2.30;;
18820;SDS011;9539;59.332;18.034;2024-03-06T13:09:05;7.18;;;2.67;;
18820;SDS011;9539;59.332;18.034;2024-03-06T13:11:28;7.60;;;2.00;;
18820;SDS011;9539;59.332;18.034;2024-03-06T13:13:50;9.95;;;2.25;;
18820;SDS011;9539;59.332;18.034;2024-03-06T13:16:13;7.95;;;2.65;;
18820;SDS011;9539;59.332;18.034;2024-03-06T13:18:34;9.00;;;2.70;;
18820;SDS011;9539;59.332;18.034;2024-03-06T13:20:55;6.82;;;2.65;;
18820;SDS011;9539;59.332;18.034;2024-03-06T13:23:18;9.00;;;2.58;;
18820;SDS011;9539;59.332;18.034;2024-03-06T13:25:40;11.77;;;2.78;;
18820;SDS011;9539;59.332;18.034;2024-03-06T13:28:04;8.43;;;2.90;;
18820;SDS011;9539;59.332;18.034;2024-03-06T13:30:26;4.20;;;2.15;;
18820;SDS011;9539;59.332;18.034;2024-03-06T13:32:48;6.88;;;2.30;;
18820;SDS011;9539;59.332;18.034;2024-03-06T13:35:09;20.42;;;2.55;;
18820;SDS011;9539;59.332;18.034;2024-03-06T13:37:32;5.00;;;2.38;;
18820;SDS011;9539;59.332;18.034;2024-03-06T13:39:54;6.28;;;2.28;;
18820;SDS011;9539;59.332;18.034;2024-03-06T13:42:20;6.32;;;2.30;;
18820;SDS011;9539;59.332;18.034;2024-03-06T13:44:43;5.10;;;2.22;;
18820;SDS011;9539;59.332;18.034;2024-03-06T13:47:05;10.25;;;2.67;;
18820;SDS011;9539;59.332;18.034;2024-03-06T13:49:34;6.80;;;2.40;;
18820;SDS011;9539;59.332;18.034;2024-03-06T13:51:56;10.82;;;3.13;;
18820;SDS011;9539;59.332;18.034;2024-03-06T13:54:18;8.85;;;2.47;;
18820;SDS011;9539;59.332;18.034;2024-03-06T13:56:39;5.20;;;2.50;;
18820;SDS011;9539;59.332;18.034;2024-03-06T13:59:02;9.00;;;2.60;;
18820;SDS011;9539;59.332;18.034;2024-03-06T14:01:25;5.78;;;2.13;;
18820;SDS011;9539;59.332;18.034;2024-03-06T14:03:46;7.80;;;2.47;;
18820;SDS011;9539;59.332;18.034;2024-03-06T14:06:08;5.90;;;2.58;;
18820;SDS011;9539;59.332;18.034;2024-03-06T14:08:30;7.85;;;2.85;;
18820;SDS011;9539;59.332;18.034;2024-03-06T14:10:52;12.52;;;2.60;;
18820;SDS011;9539;59.332;18.034;2024-03-06T14:13:14;8.10;;;2.60;;
18820;SDS011;9539;59.332;18.034;2024-03-06T14:15:35;7.30;;;2.30;;
18820;SDS011;9539;59.332;18.034;2024-03-06T14:17:58;7.13;;;2.83;;
18820;SDS011;9539;59.332;18.034;2024-03-06T14:20:21;10.18;;;2.53;;
18820;SDS011;9539;59.332;18.034;2024-03-06T14:22:43;7.40;;;2.40;;